createdAt,value
2022-10-11T00:00:09.413Z,86.63
2022-10-11T00:02:36.215Z,86.38
2022-10-11T00:05:03.609Z,86.51
2022-10-11T00:07:30.428Z,87.27
2022-10-11T00:09:57.284Z,87.76
2022-10-11T00:12:24.123Z,87.96
2022-10-11T00:14:50.960Z,88.30
2022-10-11T00:17:17.810Z,87.94
2022-10-11T00:19:44.646Z,87.78
2022-10-11T00:22:11.424Z,87.30
2022-10-11T00:24:38.320Z,87.30
2022-10-11T00:27:05.172Z,87.86
2022-10-11T00:29:32.028Z,88.00
2022-10-11T00:31:58.828Z,88.50
2022-10-11T00:34:25.813Z,88.35
2022-10-11T00:36:52.673Z,88.40
2022-10-11T00:39:19.592Z,88.76
2022-10-11T00:41:47.923Z,89.08
2022-10-11T00:44:26.079Z,89.65
2022-10-11T00:46:57.279Z,89.78
2022-10-11T00:49:38.346Z,89.53
2022-10-11T00:52:20.636Z,89.82
2022-10-11T00:54:49.014Z,90.43
2022-10-11T00:57:25.150Z,90.58
2022-10-11T00:59:55.140Z,90.48
2022-10-11T01:02:23.646Z,90.82
2022-10-11T01:05:05.672Z,90.80
2022-10-11T01:07:39.398Z,91.23
2022-10-11T01:10:06.441Z,91.04
2022-10-11T01:12:33.939Z,91.20
2022-10-11T01:15:39.612Z,91.23
2022-10-11T01:18:40.751Z,91.51
2022-10-11T01:21:21.896Z,91.57
2022-10-11T01:24:08.601Z,91.82
2022-10-11T01:26:53.703Z,91.68
2022-10-11T01:29:38.732Z,91.66
2022-10-11T01:32:24.596Z,91.68
2022-10-11T01:35:00.385Z,91.49
2022-10-11T01:37:33.141Z,91.50
2022-10-11T01:40:07.754Z,91.30
2022-10-11T01:42:38.574Z,91.31
2022-10-11T01:45:09.452Z,91.39
2022-10-11T01:47:36.567Z,91.27
2022-10-11T01:50:03.802Z,91.18
2022-10-11T01:52:34.173Z,91.20
2022-10-11T01:55:19.670Z,91.49
2022-10-11T01:58:07.127Z,91.52
2022-10-11T02:01:00.201Z,92.22
2022-10-11T02:03:46.654Z,92.20
2022-10-11T02:06:28.190Z,91.94
2022-10-11T02:09:04.460Z,92.05
2022-10-11T02:11:36.431Z,92.47
2022-10-11T02:14:13.971Z,93.04
2022-10-11T02:16:46.424Z,92.68
2022-10-11T02:19:18.751Z,92.58
2022-10-11T02:21:50.143Z,92.51
2022-10-11T02:24:22.262Z,92.43
2022-10-11T02:26:54.262Z,92.49
2022-10-11T02:29:24.451Z,92.42
2022-10-11T02:31:52.268Z,92.74
2022-10-11T02:34:23.310Z,92.50
2022-10-11T02:37:06.209Z,92.66
2022-10-11T02:39:45.819Z,92.76
2022-10-11T02:42:20.739Z,92.97
2022-10-11T02:45:00.868Z,92.88
2022-10-11T02:47:30.355Z,93.07
2022-10-11T02:49:59.896Z,93.06
2022-10-11T02:52:26.948Z,93.36
2022-10-11T02:54:53.836Z,93.28
2022-10-11T02:57:20.662Z,93.39
2022-10-11T02:59:47.706Z,93.48
2022-10-11T03:02:15.042Z,93.62
2022-10-11T03:04:41.875Z,93.72
2022-10-11T03:07:08.746Z,93.56
2022-10-11T03:09:35.784Z,93.58
2022-10-11T03:12:02.816Z,93.54
2022-10-11T03:14:29.772Z,93.52
2022-10-11T03:17:03.959Z,93.49
2022-10-11T03:19:39.075Z,93.47
2022-10-11T03:22:07.557Z,93.21
2022-10-11T03:24:34.411Z,93.77
2022-10-11T03:27:01.152Z,93.51
2022-10-11T03:29:27.947Z,93.57
2022-10-11T03:31:54.910Z,93.41
2022-10-11T03:34:24.048Z,94.31
2022-10-11T03:36:50.996Z,93.81
2022-10-11T03:39:17.947Z,93.52
2022-10-11T03:41:44.742Z,93.44
2022-10-11T03:44:11.603Z,93.63
2022-10-11T03:46:38.476Z,93.62
2022-10-11T03:49:05.301Z,93.45
2022-10-11T03:51:32.408Z,93.40
2022-10-11T03:53:59.190Z,93.26
2022-10-11T03:56:26.062Z,92.97
2022-10-11T03:58:52.857Z,92.91
2022-10-11T04:01:20.214Z,92.64
2022-10-11T04:03:47.083Z,92.49
2022-10-11T04:06:14.071Z,92.63
2022-10-11T04:08:40.910Z,92.59
2022-10-11T04:11:08.085Z,92.89
2022-10-11T04:13:34.867Z,93.09
2022-10-11T04:16:01.984Z,92.37
2022-10-11T04:18:29.218Z,92.23
2022-10-11T04:20:56.194Z,92.26
2022-10-11T04:23:23.020Z,92.29
2022-10-11T04:25:49.779Z,92.05
2022-10-11T04:28:16.670Z,92.09
2022-10-11T04:30:43.561Z,91.79
2022-10-11T04:33:11.643Z,91.56
2022-10-11T04:35:38.498Z,91.25
2022-10-11T04:38:05.799Z,90.98
2022-10-11T04:40:33.312Z,90.51
2022-10-11T04:43:00.508Z,90.18
2022-10-11T04:45:27.360Z,90.18
2022-10-11T04:47:54.171Z,90.49
2022-10-11T04:50:20.954Z,90.21
2022-10-11T04:52:47.935Z,90.56
2022-10-11T04:55:14.739Z,90.64
2022-10-11T04:57:41.645Z,90.80
2022-10-11T05:00:09.169Z,91.27
2022-10-11T05:02:36.081Z,91.50
2022-10-11T05:05:04.006Z,91.55
2022-10-11T05:07:30.804Z,91.90
2022-10-11T05:09:58.042Z,92.36
2022-10-11T05:12:25.088Z,92.65
2022-10-11T05:14:51.979Z,92.37
2022-10-11T05:17:18.817Z,92.52
2022-10-11T05:19:45.828Z,92.36
2022-10-11T05:22:12.619Z,92.33
2022-10-11T05:24:39.436Z,92.78
2022-10-11T05:27:06.704Z,92.87
2022-10-11T05:29:33.916Z,92.93
2022-10-11T05:32:01.207Z,92.93
2022-10-11T05:34:28.148Z,92.93
2022-10-11T05:36:56.583Z,92.77
2022-10-11T05:39:25.434Z,92.47
2022-10-11T05:41:52.280Z,92.06
2022-10-11T05:44:19.112Z,91.63
2022-10-11T05:46:45.846Z,91.25
2022-10-11T05:49:12.683Z,91.01
2022-10-11T05:51:39.497Z,91.19
2022-10-11T05:54:06.286Z,91.12
2022-10-11T05:56:33.073Z,91.17
2022-10-11T05:59:02.360Z,91.39
2022-10-11T06:01:29.677Z,91.20
2022-10-11T06:03:56.522Z,90.95
2022-10-11T06:06:23.804Z,90.54
2022-10-11T06:08:50.867Z,89.81
2022-10-11T06:11:20.962Z,89.45
2022-10-11T06:13:48.714Z,89.43
2022-10-11T06:16:16.369Z,88.77
2022-10-11T06:18:43.627Z,88.04
2022-10-11T06:21:10.540Z,87.23
2022-10-11T06:23:37.370Z,86.62
2022-10-11T06:26:10.102Z,86.23
2022-10-11T06:28:37.892Z,86.59
2022-10-11T06:31:06.169Z,85.49
2022-10-11T06:33:33.688Z,85.13
2022-10-11T06:36:03.318Z,84.18
2022-10-11T06:38:31.001Z,83.13
2022-10-11T06:40:58.212Z,82.34
2022-10-11T06:43:25.422Z,81.83
2022-10-11T06:45:52.237Z,81.60
2022-10-11T06:48:19.012Z,82.10
2022-10-11T06:50:59.712Z,81.67
2022-10-11T06:53:28.044Z,81.27
2022-10-11T06:56:01.075Z,81.97
2022-10-11T06:58:28.545Z,82.08
2022-10-11T07:00:59.329Z,81.96
2022-10-11T07:03:26.263Z,81.80
2022-10-11T07:05:53.390Z,81.09
2022-10-11T07:08:20.211Z,80.84
2022-10-11T07:10:50.062Z,79.26
2022-10-11T07:13:17.428Z,78.44
2022-10-11T07:15:44.307Z,77.55
2022-10-11T07:18:11.098Z,77.11
2022-10-11T07:20:38.206Z,75.92
2022-10-11T07:23:05.024Z,76.47
2022-10-11T07:25:31.835Z,76.07
2022-10-11T07:27:58.686Z,75.00
2022-10-11T07:30:25.499Z,75.20
2022-10-11T07:32:52.603Z,73.55
2022-10-11T07:35:19.894Z,73.06
2022-10-11T07:37:46.724Z,70.86
2022-10-11T07:40:13.899Z,70.77
2022-10-11T07:42:40.714Z,70.94
2022-10-11T07:45:07.885Z,70.51
2022-10-11T07:47:35.013Z,68.59
2022-10-11T07:50:02.273Z,68.25
2022-10-11T07:52:29.199Z,68.62
2022-10-11T07:54:55.989Z,68.20
2022-10-11T07:57:22.825Z,67.88
2022-10-11T07:59:50.463Z,66.12
2022-10-11T08:02:17.296Z,64.23
2022-10-11T08:04:44.276Z,65.10
2022-10-11T08:07:11.118Z,62.81
2022-10-11T08:09:38.017Z,61.78
2022-10-11T08:12:04.931Z,61.41
2022-10-11T08:14:31.742Z,59.55
2022-10-11T08:17:00.254Z,59.26
2022-10-11T08:19:27.207Z,58.92
2022-10-11T08:21:54.064Z,60.56
2022-10-11T08:24:21.127Z,59.15
2022-10-11T08:26:48.287Z,61.26
2022-10-11T08:29:15.699Z,61.13
2022-10-11T08:31:44.533Z,61.39
2022-10-11T08:34:11.795Z,61.01
2022-10-11T08:36:39.376Z,60.33
2022-10-11T08:39:08.596Z,59.58
2022-10-11T08:41:47.838Z,59.57
2022-10-11T08:47:42.857Z,58.84
2022-10-11T08:50:19.846Z,57.95
2022-10-11T08:52:53.127Z,58.30
2022-10-11T08:55:35.006Z,58.43
2022-10-11T08:58:02.525Z,57.40
2022-10-11T09:00:32.922Z,57.10
2022-10-11T09:03:09.261Z,57.08
2022-10-11T09:05:51.817Z,57.04
2022-10-11T09:08:41.895Z,55.36
2022-10-11T09:11:36.087Z,55.78
2022-10-11T09:14:19.418Z,55.75
2022-10-11T09:16:58.419Z,54.97
2022-10-11T09:19:25.492Z,56.06
2022-10-11T09:22:16.989Z,56.78
2022-10-11T09:25:06.862Z,56.30
2022-10-11T09:28:01.792Z,56.09
2022-10-11T09:30:27.993Z,55.96
2022-10-11T09:33:17.657Z,56.85
2022-10-11T09:35:47.707Z,56.60
2022-10-11T09:38:41.153Z,58.32
2022-10-11T09:41:11.941Z,59.02
2022-10-11T09:43:39.551Z,59.00
2022-10-11T09:46:23.771Z,58.98
2022-10-11T09:48:52.251Z,58.11
2022-10-11T09:51:22.508Z,58.00
2022-10-11T09:53:55.567Z,57.64
2022-10-11T09:56:25.245Z,57.03
2022-10-11T09:59:20.208Z,57.08
2022-10-11T10:01:47.149Z,55.95
2022-10-11T10:04:19.951Z,55.85
2022-10-11T10:06:47.103Z,55.48
2022-10-11T10:09:26.327Z,54.13
2022-10-11T10:11:55.425Z,54.16
2022-10-11T10:14:30.670Z,57.42
2022-10-11T10:17:07.106Z,54.78
2022-10-11T10:19:47.052Z,54.67
2022-10-11T10:22:28.045Z,53.56
2022-10-11T10:24:56.815Z,53.89
2022-10-11T10:27:26.625Z,53.62
2022-10-11T10:30:08.718Z,53.66
2022-10-11T10:33:02.799Z,53.82
2022-10-11T10:35:33.682Z,53.18
2022-10-11T10:38:11.159Z,55.29
2022-10-11T10:40:43.314Z,56.49
2022-10-11T10:43:15.738Z,54.99
2022-10-11T10:46:01.137Z,54.13
2022-10-11T10:51:57.929Z,54.14
2022-10-11T10:54:51.183Z,54.04
2022-10-11T10:57:43.543Z,52.90
2022-10-11T11:00:15.499Z,54.19
2022-10-11T11:02:49.942Z,52.50
2022-10-11T11:05:53.751Z,52.01
2022-10-11T11:08:50.247Z,51.20
2022-10-11T11:11:43.214Z,51.83
2022-10-11T11:14:15.962Z,52.67
2022-10-11T11:17:23.601Z,51.72
2022-10-11T11:19:59.205Z,50.42
2022-10-11T11:23:08.441Z,50.10
2022-10-11T11:25:57.056Z,48.24
2022-10-11T11:28:46.902Z,49.09
2022-10-11T11:31:44.614Z,48.69
2022-10-11T11:34:28.794Z,47.54
2022-10-11T11:36:57.654Z,48.26
2022-10-11T11:39:35.634Z,46.83
2022-10-11T11:42:26.613Z,45.02
2022-10-11T11:44:53.774Z,43.80
2022-10-11T11:47:33.131Z,43.38
2022-10-11T11:50:05.878Z,42.90
2022-10-11T11:52:37.512Z,40.30
2022-10-11T11:55:34.858Z,39.75
2022-10-11T11:58:20.478Z,41.05
2022-10-11T12:01:30.276Z,39.72
2022-10-11T12:04:04.843Z,37.59
2022-10-11T12:06:47.706Z,38.95
2022-10-11T12:09:22.883Z,37.33
2022-10-11T12:11:59.751Z,37.60
2022-10-11T12:14:39.996Z,37.55
2022-10-11T12:17:12.099Z,39.18
2022-10-11T12:19:42.094Z,41.95
2022-10-11T12:22:27.751Z,41.70
2022-10-11T12:25:00.308Z,39.87
2022-10-11T12:27:40.841Z,40.30
2022-10-11T12:30:43.143Z,37.39
2022-10-11T12:33:32.945Z,37.52
2022-10-11T12:36:07.329Z,37.01
2022-10-11T12:38:40.187Z,38.20
2022-10-11T12:41:09.963Z,36.75
2022-10-11T12:44:15.659Z,36.58
2022-10-11T12:46:57.799Z,36.61
2022-10-11T12:49:36.261Z,35.38
2022-10-11T12:52:18.025Z,36.22
2022-10-11T12:55:03.712Z,37.22
2022-10-11T12:57:53.934Z,37.72
2022-10-11T13:00:26.319Z,37.40
2022-10-11T13:02:53.567Z,36.66
2022-10-11T13:05:23.441Z,36.16
2022-10-11T13:07:53.017Z,38.70
2022-10-11T13:10:26.169Z,37.03
2022-10-11T13:12:54.167Z,36.60
2022-10-11T13:15:24.491Z,36.08
2022-10-11T13:17:58.365Z,36.08
2022-10-11T13:20:28.337Z,36.67
2022-10-11T13:22:56.560Z,35.93
2022-10-11T13:25:26.415Z,37.57
2022-10-11T13:27:55.883Z,36.30
2022-10-11T13:30:25.546Z,36.04
2022-10-11T13:32:53.347Z,36.59
2022-10-11T13:35:30.922Z,36.60
2022-10-11T13:37:58.437Z,38.10
2022-10-11T13:40:26.183Z,37.32
2022-10-11T13:42:55.064Z,36.88
2022-10-11T13:45:24.912Z,38.64
2022-10-11T13:47:53.748Z,37.42
2022-10-11T13:50:32.079Z,36.74
2022-10-11T13:53:01.721Z,36.17
2022-10-11T13:55:56.469Z,36.87
2022-10-11T13:58:41.332Z,36.58
2022-10-11T14:01:22.610Z,36.38
2022-10-11T14:03:59.231Z,36.03
2022-10-11T14:06:44.663Z,35.79
2022-10-11T14:09:26.304Z,37.17
2022-10-11T14:11:54.833Z,39.17
2022-10-11T14:14:51.215Z,39.43
2022-10-11T14:17:32.093Z,43.33
2022-10-11T14:20:11.494Z,42.58
2022-10-11T14:22:38.780Z,42.47
2022-10-11T14:25:05.929Z,43.21
2022-10-11T14:27:32.912Z,42.98
2022-10-11T14:30:23.962Z,43.38
2022-10-11T14:32:49.126Z,44.07
2022-10-11T14:35:25.448Z,45.35
2022-10-11T14:37:52.994Z,45.13
2022-10-11T14:40:22.931Z,45.73
2022-10-11T14:42:50.178Z,47.21
2022-10-11T14:45:18.131Z,48.23
2022-10-11T14:47:45.373Z,48.97
2022-10-11T14:50:39.159Z,50.03
2022-10-11T14:53:08.114Z,52.40
2022-10-11T14:55:37.434Z,51.55
2022-10-11T14:58:08.081Z,51.96
2022-10-11T15:00:36.320Z,52.02
2022-10-11T15:03:05.294Z,52.24
2022-10-11T15:05:34.201Z,52.93
2022-10-11T15:08:03.310Z,53.92
2022-10-11T15:10:37.580Z,54.36
2022-10-11T15:13:06.994Z,55.29
2022-10-11T15:15:38.063Z,55.05
2022-10-11T15:18:06.604Z,56.19
2022-10-11T15:20:46.404Z,56.47
2022-10-11T15:23:13.849Z,56.68
2022-10-11T15:25:41.687Z,57.99
2022-10-11T15:28:19.327Z,58.59
2022-10-11T15:30:46.679Z,59.10
2022-10-11T15:33:13.472Z,59.31
2022-10-11T15:35:40.291Z,59.24
2022-10-11T15:38:15.921Z,59.64
2022-10-11T15:40:42.870Z,61.03
2022-10-11T15:43:09.713Z,61.94
2022-10-11T15:45:36.836Z,63.19
2022-10-11T15:48:03.758Z,62.37
2022-10-11T15:50:41.499Z,62.42
2022-10-11T15:53:14.291Z,62.64
2022-10-11T15:55:49.846Z,63.25
2022-10-11T15:58:21.004Z,65.45
2022-10-11T16:00:49.556Z,64.97
2022-10-11T16:03:18.058Z,65.10
2022-10-11T16:05:45.086Z,66.09
2022-10-11T16:08:12.439Z,67.85
2022-10-11T16:10:40.101Z,67.73
2022-10-11T16:13:07.904Z,68.65
2022-10-11T16:15:37.833Z,69.43
2022-10-11T16:18:06.050Z,69.71
2022-10-11T16:20:36.078Z,70.30
2022-10-11T16:23:02.895Z,70.71
2022-10-11T16:25:29.747Z,70.77
2022-10-11T16:27:56.539Z,70.96
2022-10-11T16:30:23.450Z,71.60
2022-10-11T16:32:50.483Z,71.48
2022-10-11T16:35:17.753Z,72.27
2022-10-11T16:37:44.823Z,72.00
2022-10-11T16:40:17.548Z,71.84
2022-10-11T16:42:46.026Z,71.94
2022-10-11T16:45:14.488Z,72.37
2022-10-11T16:47:42.652Z,72.93
2022-10-11T16:50:11.130Z,73.28
2022-10-11T16:52:37.977Z,74.05
2022-10-11T16:55:05.741Z,74.08
2022-10-11T16:57:32.630Z,74.23
2022-10-11T16:59:59.661Z,74.61
2022-10-11T17:02:32.170Z,75.30
2022-10-11T17:04:59.587Z,75.18
2022-10-11T17:07:26.948Z,75.57
2022-10-11T17:09:53.718Z,75.85
2022-10-11T17:12:23.499Z,76.15
2022-10-11T17:14:51.321Z,76.29
2022-10-11T17:17:19.592Z,76.84
2022-10-11T17:19:47.710Z,77.41
2022-10-11T17:22:17.735Z,77.67
2022-10-11T17:24:45.084Z,77.81
2022-10-11T17:27:12.722Z,77.91
2022-10-11T17:29:39.880Z,77.76
2022-10-11T17:32:07.553Z,78.05
2022-10-11T17:34:35.405Z,78.08
2022-10-11T17:37:02.749Z,78.23
2022-10-11T17:39:30.923Z,78.19
2022-10-11T17:41:58.208Z,78.92
2022-10-11T17:44:25.058Z,79.14
2022-10-11T17:46:52.192Z,78.83
2022-10-11T17:49:19.276Z,78.90
2022-10-11T17:51:46.399Z,79.55
2022-10-11T17:54:13.411Z,79.21
2022-10-11T17:56:42.164Z,79.89
2022-10-11T17:59:27.819Z,79.76
2022-10-11T18:01:54.841Z,79.70
2022-10-11T18:04:23.216Z,80.00
2022-10-11T18:06:50.848Z,80.38
2022-10-11T18:09:20.097Z,80.00
2022-10-11T18:11:48.403Z,80.21
2022-10-11T18:14:15.767Z,80.40
2022-10-11T18:16:43.586Z,80.25
2022-10-11T18:19:13.908Z,80.90
2022-10-11T18:21:41.994Z,82.34
2022-10-11T18:24:15.299Z,82.71
2022-10-11T18:26:43.770Z,82.80
2022-10-11T18:29:12.520Z,83.23
2022-10-11T18:31:43.610Z,83.62
2022-10-11T18:34:13.057Z,83.73
2022-10-11T18:36:40.500Z,83.71
2022-10-11T18:39:10.975Z,83.86
2022-10-11T18:41:39.139Z,83.65
2022-10-11T18:44:09.116Z,83.58
2022-10-11T18:46:36.787Z,83.96
2022-10-11T18:49:04.619Z,83.69
2022-10-11T18:51:37.731Z,83.68
2022-10-11T18:54:07.486Z,83.63
2022-10-11T18:56:37.083Z,83.96
2022-10-11T18:59:05.017Z,83.84
2022-10-11T19:01:39.372Z,84.19
2022-10-11T19:04:09.303Z,84.80
2022-10-11T19:06:39.829Z,84.69
2022-10-11T19:09:13.287Z,84.80
2022-10-11T19:11:42.158Z,85.27
2022-10-11T19:14:12.493Z,85.11
2022-10-11T19:16:42.118Z,84.70
2022-10-11T19:19:11.911Z,85.43
2022-10-11T19:21:39.921Z,85.82
2022-10-11T19:24:07.904Z,86.11
2022-10-11T19:26:37.635Z,85.86
2022-10-11T19:29:12.015Z,86.07
2022-10-11T19:31:45.641Z,86.52
2022-10-11T19:34:13.353Z,87.16
2022-10-11T19:36:44.393Z,87.17
2022-10-11T19:39:14.254Z,87.30
2022-10-11T19:41:42.101Z,87.38
2022-10-11T19:44:09.932Z,87.46
2022-10-11T19:46:50.845Z,87.68
2022-10-11T19:49:23.963Z,87.67
2022-10-11T19:51:52.081Z,87.89
2022-10-11T19:54:19.876Z,87.90
2022-10-11T19:56:46.996Z,87.93
2022-10-11T19:59:14.693Z,87.78
2022-10-11T20:01:43.303Z,88.25
2022-10-11T20:04:27.768Z,88.12
2022-10-11T20:06:59.840Z,88.06
2022-10-11T20:09:30.793Z,88.39
2022-10-11T20:11:58.647Z,88.07
2022-10-11T20:14:25.726Z,88.15
2022-10-11T20:16:52.916Z,88.06
2022-10-11T20:19:20.221Z,88.07
2022-10-11T20:21:47.823Z,88.23
2022-10-11T20:24:14.764Z,87.80
2022-10-11T20:26:41.670Z,87.82
2022-10-11T20:29:08.647Z,88.12
2022-10-11T20:31:40.842Z,87.96
2022-10-11T20:34:08.192Z,88.24
2022-10-11T20:36:36.573Z,88.72
2022-10-11T20:39:05.205Z,89.03
2022-10-11T20:41:39.883Z,89.14
2022-10-11T20:44:07.741Z,89.47
2022-10-11T20:46:37.671Z,90.42
2022-10-11T20:49:07.753Z,90.45
2022-10-11T20:51:36.539Z,90.64
2022-10-11T20:54:04.746Z,90.63
2022-10-11T20:56:32.483Z,90.58
2022-10-11T20:58:59.841Z,90.63
2022-10-11T21:01:30.102Z,90.70
2022-10-11T21:03:58.474Z,90.78
2022-10-11T21:06:26.303Z,91.68
2022-10-11T21:08:55.998Z,91.89
2022-10-11T21:11:27.740Z,91.61
2022-10-11T21:13:59.106Z,91.59
2022-10-11T21:16:27.084Z,91.50
2022-10-11T21:18:57.074Z,91.16
2022-10-11T21:21:24.797Z,91.23
2022-10-11T21:24:10.309Z,91.56
2022-10-11T21:26:37.467Z,92.16
2022-10-11T21:29:04.665Z,92.28
2022-10-11T21:31:34.445Z,92.39
2022-10-11T21:34:02.368Z,92.23
2022-10-11T21:36:29.114Z,92.25
2022-10-11T21:38:56.440Z,92.41
2022-10-11T21:41:30.077Z,92.46
2022-10-11T21:43:57.818Z,92.56
2022-10-11T21:46:53.967Z,92.67
2022-10-11T21:49:17.594Z,92.86
2022-10-11T21:51:45.249Z,92.99
2022-10-11T21:54:12.167Z,93.18
2022-10-11T21:56:38.981Z,93.28
2022-10-11T21:59:09.406Z,93.11
2022-10-11T22:01:39.464Z,93.13
2022-10-11T22:04:09.329Z,93.09
2022-10-11T22:06:37.360Z,93.17
2022-10-11T22:09:05.760Z,93.35
2022-10-11T22:11:32.631Z,93.14
2022-10-11T22:13:59.646Z,93.18
2022-10-11T22:16:26.475Z,93.18
2022-10-11T22:18:54.068Z,93.45
2022-10-11T22:21:23.494Z,93.69
2022-10-11T22:23:52.760Z,94.05
2022-10-11T22:26:25.498Z,93.95
2022-10-11T22:28:53.513Z,94.23
2022-10-11T22:31:21.439Z,94.28
2022-10-11T22:33:49.162Z,93.92
2022-10-11T22:36:17.265Z,93.92
2022-10-11T22:38:44.434Z,94.18
2022-10-11T22:41:11.739Z,94.01
2022-10-11T22:43:39.056Z,93.79
2022-10-11T22:46:06.435Z,93.70
2022-10-11T22:48:33.558Z,93.65
2022-10-11T22:51:00.792Z,93.65
2022-10-11T22:53:27.777Z,93.69
2022-10-11T22:55:54.796Z,93.09
2022-10-11T22:58:21.625Z,92.81
2022-10-11T23:00:48.451Z,92.86
2022-10-11T23:03:16.908Z,92.91
2022-10-11T23:05:44.026Z,92.82
2022-10-11T23:08:10.892Z,92.72
2022-10-11T23:10:40.873Z,92.65
2022-10-11T23:13:07.701Z,92.98
2022-10-11T23:15:34.559Z,92.78
2022-10-11T23:18:01.469Z,93.17
2022-10-11T23:20:28.309Z,93.66
2022-10-11T23:22:55.131Z,93.80
2022-10-11T23:25:22.002Z,93.72
2022-10-11T23:27:48.779Z,93.66
2022-10-11T23:30:15.749Z,93.74
2022-10-11T23:32:42.594Z,93.67
2022-10-11T23:35:09.442Z,93.47
2022-10-11T23:37:36.540Z,93.58
2022-10-11T23:40:04.730Z,93.60
2022-10-11T23:42:31.645Z,93.80
2022-10-11T23:44:58.475Z,93.75
2022-10-11T23:47:25.225Z,93.98
2022-10-11T23:49:52.868Z,93.95
2022-10-11T23:52:19.736Z,93.87
2022-10-11T23:54:46.609Z,93.76
2022-10-11T23:57:13.561Z,93.79
2022-10-11T23:59:40.395Z,93.80
